Pagrindinis puslapis
METAR-TAF:

METAR-TAF

Oro uostai :

Aleksandrupolis, Graikija

platuma: 40-51N, ilguma: 025-55E, Aukštis: 7 m

Dabartinis oras

Ataskaita buvo paskelbta 24 minutes, ne 03:50 UTC
Ramus vėjas
Temperatūra 2°C
Drėgmė 75%
Slėgis 1014 hPa
Matomumas 10 km arba daugiau
Mažai debesys ne aukštis 2000 ft

METAR: LGAL 010350Z 00000KT 9999 FEW020 02/M02 Q1014

Laikas: 06:14 (04:14 UTC)

Prognozė

Ataskaita buvo paskelbta 2 valandos ir 14 minutes, ne 02:00 UTC
Prognozė galioja nuo 01 metu 03 UTC su 01 metu 12 UTC
Vėjas 5 kt nuo kintamojo kryptimis
Matomumas 10 km arba daugiau
Mažai debesys ne aukštis 2000 ft
Išsisklaidę debesys ne aukštis 3000 ft
Tapsmas
nuo 01 metu 04 UTC su 01 metu 06 UTC
Vėjas 10 kt iš Vakarų/Pietvakarių
Mažai debesys ne aukštis 2000 ft

TAF: LGAL 010200Z 0103/0112 VRB05KT 9999 FEW020 SCT030 BECMG 0104/0106 25010KT FEW020

Orai ataskaitas ir orų prognozės (METAR, TAF).

turimą stotys yra geltonos ir raudonos taškus žemėlapyje.

Perkelti pele per norėdami pamatyti stoties vardą.

Tada spustelėkite, norėdami matyti oro stebėjimo ir prognozės.

Norėdami pakeisti žemėlapį: spustelėkite ant žalios mygtukų su juodo kryžiaus žemyn,; žalią mygtuką su brūkšneliu, jei norite nutolinti; arba žalių rodyklių gretimoms žemėlapius.


METAR-TAF: